sensor_id;sensor_type;location;lat;lon;timestamp;P1;durP1;ratioP1;P2;durP2;ratioP2
8889;SDS011;4481;43.406;24.454;2023-04-24T00:01:47;13.83;;;6.83;;
8889;SDS011;4481;43.406;24.454;2023-04-24T00:04:14;11.23;;;6.47;;
8889;SDS011;4481;43.406;24.454;2023-04-24T00:06:41;7.13;;;5.80;;
8889;SDS011;4481;43.406;24.454;2023-04-24T00:09:07;6.60;;;5.90;;
8889;SDS011;4481;43.406;24.454;2023-04-24T00:11:34;8.60;;;6.73;;
8889;SDS011;4481;43.406;24.454;2023-04-24T00:14:01;9.37;;;7.37;;
8889;SDS011;4481;43.406;24.454;2023-04-24T00:16:27;10.60;;;8.20;;
8889;SDS011;4481;43.406;24.454;2023-04-24T00:18:54;11.93;;;7.83;;
8889;SDS011;4481;43.406;24.454;2023-04-24T00:21:21;8.43;;;6.77;;
8889;SDS011;4481;43.406;24.454;2023-04-24T00:23:50;9.57;;;8.07;;
8889;SDS011;4481;43.406;24.454;2023-04-24T00:26:16;11.33;;;8.43;;
8889;SDS011;4481;43.406;24.454;2023-04-24T00:28:42;9.47;;;8.03;;
8889;SDS011;4481;43.406;24.454;2023-04-24T00:31:09;10.07;;;8.03;;
8889;SDS011;4481;43.406;24.454;2023-04-24T00:33:35;9.93;;;7.93;;
8889;SDS011;4481;43.406;24.454;2023-04-24T00:36:01;10.23;;;8.07;;
8889;SDS011;4481;43.406;24.454;2023-04-24T00:38:28;9.90;;;7.53;;
8889;SDS011;4481;43.406;24.454;2023-04-24T00:40:55;9.30;;;7.37;;
8889;SDS011;4481;43.406;24.454;2023-04-24T00:43:21;12.07;;;8.10;;
8889;SDS011;4481;43.406;24.454;2023-04-24T00:45:47;10.70;;;7.80;;
8889;SDS011;4481;43.406;24.454;2023-04-24T00:48:13;11.63;;;8.70;;
8889;SDS011;4481;43.406;24.454;2023-04-24T00:50:40;9.83;;;8.17;;
8889;SDS011;4481;43.406;24.454;2023-04-24T00:53:07;11.07;;;8.70;;
8889;SDS011;4481;43.406;24.454;2023-04-24T00:55:34;9.43;;;8.37;;
8889;SDS011;4481;43.406;24.454;2023-04-24T00:58:02;9.27;;;7.63;;
8889;SDS011;4481;43.406;24.454;2023-04-24T01:00:28;7.40;;;6.60;;
8889;SDS011;4481;43.406;24.454;2023-04-24T01:02:55;8.80;;;7.03;;
8889;SDS011;4481;43.406;24.454;2023-04-24T01:05:21;8.83;;;7.03;;
8889;SDS011;4481;43.406;24.454;2023-04-24T01:07:48;9.80;;;6.77;;
8889;SDS011;4481;43.406;24.454;2023-04-24T01:10:14;9.43;;;6.57;;
8889;SDS011;4481;43.406;24.454;2023-04-24T01:12:42;8.80;;;6.17;;
8889;SDS011;4481;43.406;24.454;2023-04-24T01:15:09;7.17;;;6.40;;
8889;SDS011;4481;43.406;24.454;2023-04-24T01:17:36;8.30;;;6.80;;
8889;SDS011;4481;43.406;24.454;2023-04-24T01:20:03;7.60;;;6.47;;
8889;SDS011;4481;43.406;24.454;2023-04-24T01:22:31;6.90;;;6.03;;
8889;SDS011;4481;43.406;24.454;2023-04-24T01:24:58;7.57;;;6.73;;
8889;SDS011;4481;43.406;24.454;2023-04-24T01:27:24;9.13;;;7.00;;
8889;SDS011;4481;43.406;24.454;2023-04-24T01:29:51;8.57;;;6.70;;
8889;SDS011;4481;43.406;24.454;2023-04-24T01:32:17;7.77;;;6.50;;
8889;SDS011;4481;43.406;24.454;2023-04-24T01:34:44;8.57;;;5.87;;
8889;SDS011;4481;43.406;24.454;2023-04-24T01:37:11;7.73;;;5.73;;
8889;SDS011;4481;43.406;24.454;2023-04-24T01:39:38;5.97;;;5.37;;
8889;SDS011;4481;43.406;24.454;2023-04-24T01:42:04;7.63;;;5.50;;
8889;SDS011;4481;43.406;24.454;2023-04-24T01:44:31;8.27;;;5.67;;
8889;SDS011;4481;43.406;24.454;2023-04-24T01:47:00;10.50;;;6.10;;
8889;SDS011;4481;43.406;24.454;2023-04-24T01:49:26;8.67;;;5.87;;
8889;SDS011;4481;43.406;24.454;2023-04-24T01:51:52;9.20;;;6.17;;
8889;SDS011;4481;43.406;24.454;2023-04-24T01:54:19;6.40;;;5.80;;
8889;SDS011;4481;43.406;24.454;2023-04-24T01:56:46;8.40;;;6.20;;
8889;SDS011;4481;43.406;24.454;2023-04-24T01:59:12;7.43;;;5.97;;
8889;SDS011;4481;43.406;24.454;2023-04-24T02:01:38;10.10;;;7.17;;
8889;SDS011;4481;43.406;24.454;2023-04-24T02:04:05;12.60;;;7.40;;
8889;SDS011;4481;43.406;24.454;2023-04-24T02:06:32;7.13;;;6.40;;
8889;SDS011;4481;43.406;24.454;2023-04-24T02:08:58;8.13;;;5.97;;
8889;SDS011;4481;43.406;24.454;2023-04-24T02:11:24;6.80;;;6.10;;
8889;SDS011;4481;43.406;24.454;2023-04-24T02:13:51;8.37;;;6.20;;
8889;SDS011;4481;43.406;24.454;2023-04-24T02:16:18;12.60;;;5.87;;
8889;SDS011;4481;43.406;24.454;2023-04-24T02:18:44;8.60;;;6.03;;
8889;SDS011;4481;43.406;24.454;2023-04-24T02:21:10;9.67;;;6.27;;
8889;SDS011;4481;43.406;24.454;2023-04-24T02:23:37;7.90;;;6.03;;
8889;SDS011;4481;43.406;24.454;2023-04-24T02:26:03;9.33;;;6.23;;
8889;SDS011;4481;43.406;24.454;2023-04-24T02:28:29;8.07;;;5.93;;
8889;SDS011;4481;43.406;24.454;2023-04-24T02:30:56;8.57;;;6.47;;
8889;SDS011;4481;43.406;24.454;2023-04-24T02:33:22;6.97;;;6.27;;
8889;SDS011;4481;43.406;24.454;2023-04-24T02:35:48;9.37;;;6.10;;
8889;SDS011;4481;43.406;24.454;2023-04-24T02:38:14;7.43;;;6.03;;
8889;SDS011;4481;43.406;24.454;2023-04-24T02:40:40;7.33;;;6.30;;
8889;SDS011;4481;43.406;24.454;2023-04-24T02:43:06;11.97;;;5.70;;
8889;SDS011;4481;43.406;24.454;2023-04-24T02:45:33;6.83;;;5.97;;
8889;SDS011;4481;43.406;24.454;2023-04-24T02:48:00;8.20;;;5.80;;
8889;SDS011;4481;43.406;24.454;2023-04-24T02:50:26;7.57;;;5.60;;
8889;SDS011;4481;43.406;24.454;2023-04-24T02:52:52;7.57;;;5.63;;
8889;SDS011;4481;43.406;24.454;2023-04-24T02:55:19;9.07;;;6.10;;
8889;SDS011;4481;43.406;24.454;2023-04-24T02:57:45;8.33;;;5.17;;
8889;SDS011;4481;43.406;24.454;2023-04-24T03:00:11;8.97;;;5.93;;
8889;SDS011;4481;43.406;24.454;2023-04-24T03:02:38;8.00;;;6.00;;
8889;SDS011;4481;43.406;24.454;2023-04-24T03:05:05;7.10;;;5.70;;
8889;SDS011;4481;43.406;24.454;2023-04-24T03:07:32;7.33;;;6.00;;
8889;SDS011;4481;43.406;24.454;2023-04-24T03:09:58;9.20;;;6.17;;
8889;SDS011;4481;43.406;24.454;2023-04-24T03:12:25;10.70;;;6.80;;
8889;SDS011;4481;43.406;24.454;2023-04-24T03:14:51;7.60;;;6.43;;
8889;SDS011;4481;43.406;24.454;2023-04-24T03:17:17;8.13;;;6.77;;
8889;SDS011;4481;43.406;24.454;2023-04-24T03:19:43;7.87;;;6.60;;
8889;SDS011;4481;43.406;24.454;2023-04-24T03:22:10;9.37;;;7.20;;
8889;SDS011;4481;43.406;24.454;2023-04-24T03:24:36;7.97;;;6.50;;
8889;SDS011;4481;43.406;24.454;2023-04-24T03:27:02;8.80;;;7.00;;
8889;SDS011;4481;43.406;24.454;2023-04-24T03:29:28;8.83;;;6.90;;
8889;SDS011;4481;43.406;24.454;2023-04-24T03:31:54;9.70;;;7.00;;
8889;SDS011;4481;43.406;24.454;2023-04-24T03:34:21;8.60;;;6.77;;
8889;SDS011;4481;43.406;24.454;2023-04-24T03:36:47;8.33;;;6.93;;
8889;SDS011;4481;43.406;24.454;2023-04-24T03:39:13;11.50;;;6.50;;
8889;SDS011;4481;43.406;24.454;2023-04-24T03:41:40;9.87;;;6.87;;
8889;SDS011;4481;43.406;24.454;2023-04-24T03:44:06;11.10;;;7.53;;
8889;SDS011;4481;43.406;24.454;2023-04-24T03:46:32;8.87;;;6.77;;
8889;SDS011;4481;43.406;24.454;2023-04-24T03:48:58;11.13;;;6.97;;
8889;SDS011;4481;43.406;24.454;2023-04-24T03:51:24;9.83;;;7.07;;
8889;SDS011;4481;43.406;24.454;2023-04-24T03:53:53;7.57;;;6.77;;
8889;SDS011;4481;43.406;24.454;2023-04-24T03:56:19;8.90;;;6.80;;
8889;SDS011;4481;43.406;24.454;2023-04-24T03:58:46;8.07;;;6.13;;
8889;SDS011;4481;43.406;24.454;2023-04-24T04:01:12;6.50;;;5.90;;
8889;SDS011;4481;43.406;24.454;2023-04-24T04:03:38;7.10;;;6.07;;
8889;SDS011;4481;43.406;24.454;2023-04-24T04:06:05;6.60;;;5.93;;
8889;SDS011;4481;43.406;24.454;2023-04-24T04:08:31;10.00;;;6.10;;
8889;SDS011;4481;43.406;24.454;2023-04-24T04:10:57;6.23;;;5.47;;
8889;SDS011;4481;43.406;24.454;2023-04-24T04:13:24;6.90;;;5.57;;
8889;SDS011;4481;43.406;24.454;2023-04-24T04:15:50;7.87;;;6.03;;
8889;SDS011;4481;43.406;24.454;2023-04-24T04:18:16;9.93;;;5.90;;
8889;SDS011;4481;43.406;24.454;2023-04-24T04:20:42;10.03;;;5.70;;
8889;SDS011;4481;43.406;24.454;2023-04-24T04:23:08;7.00;;;6.10;;
8889;SDS011;4481;43.406;24.454;2023-04-24T04:25:35;7.87;;;6.03;;
8889;SDS011;4481;43.406;24.454;2023-04-24T04:28:01;8.03;;;6.03;;
8889;SDS011;4481;43.406;24.454;2023-04-24T04:30:28;7.70;;;6.07;;
8889;SDS011;4481;43.406;24.454;2023-04-24T04:32:57;6.27;;;5.63;;
8889;SDS011;4481;43.406;24.454;2023-04-24T04:35:23;7.50;;;5.90;;
8889;SDS011;4481;43.406;24.454;2023-04-24T04:37:50;9.23;;;6.63;;
8889;SDS011;4481;43.406;24.454;2023-04-24T04:40:17;9.20;;;6.53;;
8889;SDS011;4481;43.406;24.454;2023-04-24T04:42:43;8.03;;;6.30;;
8889;SDS011;4481;43.406;24.454;2023-04-24T04:45:11;7.00;;;6.23;;
8889;SDS011;4481;43.406;24.454;2023-04-24T04:47:38;8.53;;;6.63;;
8889;SDS011;4481;43.406;24.454;2023-04-24T04:50:05;9.50;;;7.97;;
8889;SDS011;4481;43.406;24.454;2023-04-24T04:52:32;10.43;;;7.77;;
8889;SDS011;4481;43.406;24.454;2023-04-24T04:54:58;9.50;;;7.37;;
8889;SDS011;4481;43.406;24.454;2023-04-24T04:57:25;9.53;;;8.50;;
8889;SDS011;4481;43.406;24.454;2023-04-24T04:59:51;10.10;;;8.73;;
8889;SDS011;4481;43.406;24.454;2023-04-24T05:02:17;10.30;;;7.90;;
8889;SDS011;4481;43.406;24.454;2023-04-24T05:04:44;10.50;;;8.10;;
8889;SDS011;4481;43.406;24.454;2023-04-24T05:07:10;11.43;;;8.30;;
8889;SDS011;4481;43.406;24.454;2023-04-24T05:09:37;8.60;;;7.73;;
8889;SDS011;4481;43.406;24.454;2023-04-24T05:12:03;11.77;;;8.77;;
8889;SDS011;4481;43.406;24.454;2023-04-24T05:14:29;9.73;;;8.60;;
8889;SDS011;4481;43.406;24.454;2023-04-24T05:16:55;9.57;;;8.60;;
8889;SDS011;4481;43.406;24.454;2023-04-24T05:19:21;9.63;;;7.87;;
8889;SDS011;4481;43.406;24.454;2023-04-24T05:21:48;10.50;;;7.73;;
8889;SDS011;4481;43.406;24.454;2023-04-24T05:24:14;8.83;;;7.63;;
8889;SDS011;4481;43.406;24.454;2023-04-24T05:26:41;14.10;;;8.73;;
8889;SDS011;4481;43.406;24.454;2023-04-24T05:29:07;12.37;;;8.27;;
8889;SDS011;4481;43.406;24.454;2023-04-24T05:31:33;9.87;;;8.40;;
8889;SDS011;4481;43.406;24.454;2023-04-24T05:33:59;8.37;;;7.53;;
8889;SDS011;4481;43.406;24.454;2023-04-24T05:36:27;12.00;;;8.70;;
8889;SDS011;4481;43.406;24.454;2023-04-24T05:38:53;8.97;;;8.07;;
8889;SDS011;4481;43.406;24.454;2023-04-24T05:41:20;13.43;;;9.07;;
8889;SDS011;4481;43.406;24.454;2023-04-24T05:43:47;12.33;;;8.67;;
8889;SDS011;4481;43.406;24.454;2023-04-24T05:46:13;9.20;;;8.30;;
8889;SDS011;4481;43.406;24.454;2023-04-24T05:48:40;9.47;;;8.47;;
8889;SDS011;4481;43.406;24.454;2023-04-24T05:51:06;13.27;;;7.57;;
8889;SDS011;4481;43.406;24.454;2023-04-24T05:53:32;10.70;;;8.70;;
8889;SDS011;4481;43.406;24.454;2023-04-24T05:55:59;10.07;;;8.93;;
8889;SDS011;4481;43.406;24.454;2023-04-24T05:58:26;10.23;;;8.37;;
8889;SDS011;4481;43.406;24.454;2023-04-24T06:00:52;9.50;;;8.33;;
8889;SDS011;4481;43.406;24.454;2023-04-24T06:03:20;10.40;;;7.40;;
8889;SDS011;4481;43.406;24.454;2023-04-24T06:05:46;10.10;;;7.60;;
8889;SDS011;4481;43.406;24.454;2023-04-24T06:08:13;11.83;;;8.47;;
8889;SDS011;4481;43.406;24.454;2023-04-24T06:10:39;8.20;;;7.33;;
8889;SDS011;4481;43.406;24.454;2023-04-24T06:13:06;8.00;;;6.43;;
8889;SDS011;4481;43.406;24.454;2023-04-24T06:15:32;7.07;;;6.40;;
8889;SDS011;4481;43.406;24.454;2023-04-24T06:17:58;8.13;;;6.77;;
8889;SDS011;4481;43.406;24.454;2023-04-24T06:20:25;7.87;;;7.03;;
8889;SDS011;4481;43.406;24.454;2023-04-24T06:22:51;7.83;;;6.53;;
8889;SDS011;4481;43.406;24.454;2023-04-24T06:25:17;10.53;;;7.57;;
8889;SDS011;4481;43.406;24.454;2023-04-24T06:27:44;7.93;;;6.27;;
8889;SDS011;4481;43.406;24.454;2023-04-24T06:30:11;6.73;;;6.03;;
8889;SDS011;4481;43.406;24.454;2023-04-24T06:32:38;8.53;;;6.77;;
8889;SDS011;4481;43.406;24.454;2023-04-24T06:35:04;7.10;;;6.50;;
8889;SDS011;4481;43.406;24.454;2023-04-24T06:37:32;8.47;;;6.20;;
8889;SDS011;4481;43.406;24.454;2023-04-24T06:39:58;7.93;;;6.03;;
8889;SDS011;4481;43.406;24.454;2023-04-24T06:42:24;11.23;;;5.97;;
8889;SDS011;4481;43.406;24.454;2023-04-24T06:44:51;6.83;;;5.70;;
8889;SDS011;4481;43.406;24.454;2023-04-24T06:47:19;7.73;;;5.90;;
8889;SDS011;4481;43.406;24.454;2023-04-24T06:49:45;6.73;;;5.23;;
8889;SDS011;4481;43.406;24.454;2023-04-24T06:52:11;6.80;;;6.10;;
8889;SDS011;4481;43.406;24.454;2023-04-24T06:54:37;6.30;;;5.70;;
8889;SDS011;4481;43.406;24.454;2023-04-24T06:57:03;7.73;;;5.10;;
8889;SDS011;4481;43.406;24.454;2023-04-24T06:59:29;5.57;;;5.07;;
8889;SDS011;4481;43.406;24.454;2023-04-24T07:01:56;6.30;;;5.70;;
8889;SDS011;4481;43.406;24.454;2023-04-24T07:04:23;7.63;;;6.00;;
8889;SDS011;4481;43.406;24.454;2023-04-24T07:06:50;5.90;;;5.40;;
8889;SDS011;4481;43.406;24.454;2023-04-24T07:09:16;6.97;;;5.57;;
8889;SDS011;4481;43.406;24.454;2023-04-24T07:11:43;6.20;;;5.60;;
8889;SDS011;4481;43.406;24.454;2023-04-24T07:14:09;7.10;;;5.00;;
8889;SDS011;4481;43.406;24.454;2023-04-24T07:16:36;7.37;;;5.53;;
8889;SDS011;4481;43.406;24.454;2023-04-24T07:19:02;6.07;;;4.77;;
8889;SDS011;4481;43.406;24.454;2023-04-24T07:21:29;6.13;;;4.60;;
8889;SDS011;4481;43.406;24.454;2023-04-24T07:23:56;6.73;;;5.10;;
8889;SDS011;4481;43.406;24.454;2023-04-24T07:26:22;5.07;;;4.30;;
8889;SDS011;4481;43.406;24.454;2023-04-24T07:28:48;5.47;;;4.97;;
8889;SDS011;4481;43.406;24.454;2023-04-24T07:31:14;10.67;;;4.90;;
8889;SDS011;4481;43.406;24.454;2023-04-24T07:33:41;5.60;;;4.50;;
8889;SDS011;4481;43.406;24.454;2023-04-24T07:36:07;6.37;;;4.87;;
8889;SDS011;4481;43.406;24.454;2023-04-24T07:38:34;7.47;;;6.20;;
8889;SDS011;4481;43.406;24.454;2023-04-24T07:41:00;15.47;;;7.23;;
8889;SDS011;4481;43.406;24.454;2023-04-24T07:43:26;6.70;;;6.10;;
8889;SDS011;4481;43.406;24.454;2023-04-24T07:45:53;8.87;;;6.90;;
8889;SDS011;4481;43.406;24.454;2023-04-24T07:48:19;6.57;;;5.97;;
8889;SDS011;4481;43.406;24.454;2023-04-24T07:50:47;8.33;;;6.50;;
8889;SDS011;4481;43.406;24.454;2023-04-24T07:53:13;7.60;;;6.90;;
8889;SDS011;4481;43.406;24.454;2023-04-24T07:55:41;7.40;;;6.60;;
8889;SDS011;4481;43.406;24.454;2023-04-24T07:58:08;7.73;;;6.63;;
8889;SDS011;4481;43.406;24.454;2023-04-24T08:00:34;6.80;;;6.20;;
8889;SDS011;4481;43.406;24.454;2023-04-24T08:03:01;8.17;;;7.37;;
8889;SDS011;4481;43.406;24.454;2023-04-24T08:05:27;8.17;;;7.43;;
8889;SDS011;4481;43.406;24.454;2023-04-24T08:07:54;8.10;;;7.30;;
8889;SDS011;4481;43.406;24.454;2023-04-24T08:10:20;8.37;;;7.30;;
8889;SDS011;4481;43.406;24.454;2023-04-24T08:12:48;8.67;;;7.87;;
8889;SDS011;4481;43.406;24.454;2023-04-24T08:15:14;7.63;;;6.83;;
8889;SDS011;4481;43.406;24.454;2023-04-24T08:17:42;9.73;;;7.83;;
8889;SDS011;4481;43.406;24.454;2023-04-24T08:20:09;10.37;;;7.97;;
8889;SDS011;4481;43.406;24.454;2023-04-24T08:22:38;9.60;;;7.40;;
8889;SDS011;4481;43.406;24.454;2023-04-24T08:25:05;9.23;;;7.83;;
8889;SDS011;4481;43.406;24.454;2023-04-24T08:27:33;7.97;;;7.17;;
8889;SDS011;4481;43.406;24.454;2023-04-24T08:30:00;7.70;;;6.90;;
8889;SDS011;4481;43.406;24.454;2023-04-24T08:32:26;8.30;;;7.50;;
8889;SDS011;4481;43.406;24.454;2023-04-24T08:34:54;7.03;;;6.40;;
8889;SDS011;4481;43.406;24.454;2023-04-24T08:37:21;8.07;;;7.27;;
8889;SDS011;4481;43.406;24.454;2023-04-24T08:39:47;7.00;;;6.40;;
8889;SDS011;4481;43.406;24.454;2023-04-24T08:42:14;7.13;;;6.27;;
8889;SDS011;4481;43.406;24.454;2023-04-24T08:44:42;7.13;;;6.43;;
8889;SDS011;4481;43.406;24.454;2023-04-24T08:47:10;14.43;;;6.90;;
8889;SDS011;4481;43.406;24.454;2023-04-24T08:49:37;9.67;;;6.63;;
8889;SDS011;4481;43.406;24.454;2023-04-24T08:52:04;6.87;;;6.27;;
8889;SDS011;4481;43.406;24.454;2023-04-24T08:54:31;7.37;;;6.73;;
8889;SDS011;4481;43.406;24.454;2023-04-24T08:56:59;7.60;;;6.53;;
8889;SDS011;4481;43.406;24.454;2023-04-24T08:59:26;7.10;;;6.47;;
8889;SDS011;4481;43.406;24.454;2023-04-24T09:01:53;9.97;;;6.47;;
8889;SDS011;4481;43.406;24.454;2023-04-24T09:04:21;8.07;;;7.03;;
8889;SDS011;4481;43.406;24.454;2023-04-24T09:06:51;7.93;;;6.47;;
8889;SDS011;4481;43.406;24.454;2023-04-24T09:09:17;6.50;;;5.90;;
8889;SDS011;4481;43.406;24.454;2023-04-24T09:11:43;7.03;;;6.43;;
8889;SDS011;4481;43.406;24.454;2023-04-24T09:14:10;8.53;;;6.70;;
8889;SDS011;4481;43.406;24.454;2023-04-24T09:16:37;7.50;;;6.80;;
8889;SDS011;4481;43.406;24.454;2023-04-24T09:19:03;11.50;;;7.47;;
8889;SDS011;4481;43.406;24.454;2023-04-24T09:21:31;7.67;;;6.97;;
8889;SDS011;4481;43.406;24.454;2023-04-24T09:23:58;7.57;;;6.10;;
8889;SDS011;4481;43.406;24.454;2023-04-24T09:26:26;7.63;;;6.40;;
8889;SDS011;4481;43.406;24.454;2023-04-24T09:28:57;7.37;;;6.50;;
8889;SDS011;4481;43.406;24.454;2023-04-24T09:31:24;9.60;;;6.27;;
8889;SDS011;4481;43.406;24.454;2023-04-24T09:33:54;7.77;;;6.53;;
8889;SDS011;4481;43.406;24.454;2023-04-24T09:36:26;7.30;;;6.50;;
8889;SDS011;4481;43.406;24.454;2023-04-24T09:38:55;8.10;;;6.03;;
8889;SDS011;4481;43.406;24.454;2023-04-24T09:41:24;8.60;;;7.30;;
8889;SDS011;4481;43.406;24.454;2023-04-24T09:43:51;6.67;;;6.00;;
8889;SDS011;4481;43.406;24.454;2023-04-24T09:46:19;6.80;;;6.10;;
8889;SDS011;4481;43.406;24.454;2023-04-24T09:48:46;8.33;;;6.67;;
8889;SDS011;4481;43.406;24.454;2023-04-24T09:51:12;6.30;;;5.40;;
8889;SDS011;4481;43.406;24.454;2023-04-24T09:53:44;6.43;;;5.83;;
8889;SDS011;4481;43.406;24.454;2023-04-24T09:56:12;7.47;;;6.27;;
8889;SDS011;4481;43.406;24.454;2023-04-24T09:58:38;7.27;;;6.10;;
8889;SDS011;4481;43.406;24.454;2023-04-24T10:01:04;5.47;;;5.03;;
8889;SDS011;4481;43.406;24.454;2023-04-24T10:03:31;6.17;;;5.57;;
8889;SDS011;4481;43.406;24.454;2023-04-24T10:05:58;6.17;;;5.57;;
8889;SDS011;4481;43.406;24.454;2023-04-24T10:08:24;6.90;;;6.13;;
8889;SDS011;4481;43.406;24.454;2023-04-24T10:10:51;5.70;;;5.20;;
8889;SDS011;4481;43.406;24.454;2023-04-24T10:13:18;5.80;;;5.30;;
8889;SDS011;4481;43.406;24.454;2023-04-24T10:15:45;7.20;;;6.20;;
8889;SDS011;4481;43.406;24.454;2023-04-24T10:18:13;8.10;;;5.30;;
8889;SDS011;4481;43.406;24.454;2023-04-24T10:20:41;7.20;;;5.53;;
8889;SDS011;4481;43.406;24.454;2023-04-24T10:23:07;10.40;;;5.13;;
8889;SDS011;4481;43.406;24.454;2023-04-24T10:25:34;6.47;;;5.33;;
8889;SDS011;4481;43.406;24.454;2023-04-24T10:28:02;5.63;;;5.03;;
8889;SDS011;4481;43.406;24.454;2023-04-24T10:30:29;6.27;;;5.00;;
8889;SDS011;4481;43.406;24.454;2023-04-24T10:33:00;6.97;;;5.23;;
8889;SDS011;4481;43.406;24.454;2023-04-24T10:35:26;8.53;;;4.87;;
8889;SDS011;4481;43.406;24.454;2023-04-24T10:37:56;15.20;;;6.57;;
8889;SDS011;4481;43.406;24.454;2023-04-24T10:40:26;9.03;;;8.13;;
8889;SDS011;4481;43.406;24.454;2023-04-24T10:42:55;8.37;;;4.90;;
8889;SDS011;4481;43.406;24.454;2023-04-24T10:45:22;12.13;;;5.60;;
8889;SDS011;4481;43.406;24.454;2023-04-24T10:47:54;11.07;;;5.77;;
8889;SDS011;4481;43.406;24.454;2023-04-24T10:50:23;13.13;;;5.60;;
8889;SDS011;4481;43.406;24.454;2023-04-24T10:52:51;14.10;;;6.87;;
8889;SDS011;4481;43.406;24.454;2023-04-24T10:58:06;37.20;;;12.63;;
8889;SDS011;4481;43.406;24.454;2023-04-24T11:00:32;7.50;;;4.90;;
8889;SDS011;4481;43.406;24.454;2023-04-24T11:03:03;5.70;;;5.13;;
8889;SDS011;4481;43.406;24.454;2023-04-24T11:08:25;6.33;;;5.60;;
8889;SDS011;4481;43.406;24.454;2023-04-24T11:10:57;5.73;;;4.90;;
8889;SDS011;4481;43.406;24.454;2023-04-24T11:13:25;5.27;;;4.60;;
8889;SDS011;4481;43.406;24.454;2023-04-24T11:18:42;8.30;;;4.47;;
8889;SDS011;4481;43.406;24.454;2023-04-24T11:21:16;5.07;;;4.50;;
8889;SDS011;4481;43.406;24.454;2023-04-24T11:23:42;6.17;;;4.30;;
8889;SDS011;4481;43.406;24.454;2023-04-24T11:26:10;4.57;;;4.17;;
8889;SDS011;4481;43.406;24.454;2023-04-24T11:28:37;6.03;;;4.57;;
8889;SDS011;4481;43.406;24.454;2023-04-24T11:34:06;6.07;;;4.17;;
8889;SDS011;4481;43.406;24.454;2023-04-24T11:36:33;5.87;;;4.60;;
8889;SDS011;4481;43.406;24.454;2023-04-24T11:39:00;5.17;;;4.10;;
8889;SDS011;4481;43.406;24.454;2023-04-24T11:41:27;4.70;;;4.20;;
8889;SDS011;4481;43.406;24.454;2023-04-24T11:43:54;8.17;;;4.43;;
8889;SDS011;4481;43.406;24.454;2023-04-24T11:46:21;4.67;;;4.17;;
8889;SDS011;4481;43.406;24.454;2023-04-24T11:48:48;7.47;;;4.67;;
8889;SDS011;4481;43.406;24.454;2023-04-24T11:51:14;4.77;;;4.27;;
8889;SDS011;4481;43.406;24.454;2023-04-24T11:53:41;4.73;;;4.23;;
8889;SDS011;4481;43.406;24.454;2023-04-24T11:56:08;5.23;;;4.73;;
8889;SDS011;4481;43.406;24.454;2023-04-24T11:58:35;4.67;;;4.20;;
8889;SDS011;4481;43.406;24.454;2023-04-24T12:01:01;4.27;;;3.87;;
8889;SDS011;4481;43.406;24.454;2023-04-24T12:03:28;5.00;;;4.50;;
8889;SDS011;4481;43.406;24.454;2023-04-24T12:06:04;6.97;;;4.63;;
8889;SDS011;4481;43.406;24.454;2023-04-24T12:08:32;7.87;;;4.97;;
8889;SDS011;4481;43.406;24.454;2023-04-24T12:10:59;5.50;;;4.20;;
8889;SDS011;4481;43.406;24.454;2023-04-24T12:13:26;6.17;;;4.80;;
8889;SDS011;4481;43.406;24.454;2023-04-24T12:15:52;4.53;;;3.97;;
8889;SDS011;4481;43.406;24.454;2023-04-24T12:18:18;4.23;;;3.80;;
8889;SDS011;4481;43.406;24.454;2023-04-24T12:20:47;5.67;;;4.60;;
8889;SDS011;4481;43.406;24.454;2023-04-24T12:23:14;6.27;;;4.60;;
8889;SDS011;4481;43.406;24.454;2023-04-24T12:25:40;7.70;;;5.50;;
8889;SDS011;4481;43.406;24.454;2023-04-24T12:28:11;5.13;;;4.63;;
8889;SDS011;4481;43.406;24.454;2023-04-24T12:30:39;7.00;;;4.13;;
8889;SDS011;4481;43.406;24.454;2023-04-24T12:33:06;5.33;;;4.73;;
8889;SDS011;4481;43.406;24.454;2023-04-24T12:35:33;4.63;;;4.20;;
8889;SDS011;4481;43.406;24.454;2023-04-24T12:38:05;7.57;;;3.83;;
8889;SDS011;4481;43.406;24.454;2023-04-24T12:40:33;4.60;;;4.10;;
8889;SDS011;4481;43.406;24.454;2023-04-24T12:43:00;5.37;;;4.03;;
8889;SDS011;4481;43.406;24.454;2023-04-24T12:45:26;4.43;;;4.03;;
8889;SDS011;4481;43.406;24.454;2023-04-24T12:47:53;4.43;;;3.80;;
8889;SDS011;4481;43.406;24.454;2023-04-24T12:50:19;6.00;;;5.40;;
8889;SDS011;4481;43.406;24.454;2023-04-24T12:52:45;8.07;;;4.17;;
8889;SDS011;4481;43.406;24.454;2023-04-24T12:55:11;4.23;;;3.83;;
8889;SDS011;4481;43.406;24.454;2023-04-24T12:57:38;6.57;;;4.07;;
8889;SDS011;4481;43.406;24.454;2023-04-24T13:00:06;4.77;;;3.63;;
8889;SDS011;4481;43.406;24.454;2023-04-24T13:02:34;6.80;;;4.77;;
8889;SDS011;4481;43.406;24.454;2023-04-24T13:05:00;7.47;;;4.10;;
8889;SDS011;4481;43.406;24.454;2023-04-24T13:07:27;5.33;;;4.30;;
8889;SDS011;4481;43.406;24.454;2023-04-24T13:09:54;10.57;;;4.40;;
8889;SDS011;4481;43.406;24.454;2023-04-24T13:12:21;4.93;;;4.43;;
8889;SDS011;4481;43.406;24.454;2023-04-24T13:14:48;5.27;;;3.90;;
8889;SDS011;4481;43.406;24.454;2023-04-24T13:17:15;5.13;;;3.70;;
8889;SDS011;4481;43.406;24.454;2023-04-24T13:19:42;4.70;;;4.20;;
8889;SDS011;4481;43.406;24.454;2023-04-24T13:22:10;5.87;;;3.97;;
8889;SDS011;4481;43.406;24.454;2023-04-24T13:24:37;4.43;;;4.03;;
8889;SDS011;4481;43.406;24.454;2023-04-24T13:27:06;5.40;;;3.63;;
8889;SDS011;4481;43.406;24.454;2023-04-24T13:29:32;4.47;;;3.90;;
8889;SDS011;4481;43.406;24.454;2023-04-24T13:31:58;4.73;;;3.57;;
8889;SDS011;4481;43.406;24.454;2023-04-24T13:34:26;4.47;;;4.07;;
8889;SDS011;4481;43.406;24.454;2023-04-24T13:36:53;5.17;;;4.17;;
8889;SDS011;4481;43.406;24.454;2023-04-24T13:39:20;3.90;;;3.50;;
8889;SDS011;4481;43.406;24.454;2023-04-24T13:41:47;6.87;;;4.23;;
8889;SDS011;4481;43.406;24.454;2023-04-24T13:44:13;4.80;;;3.93;;
8889;SDS011;4481;43.406;24.454;2023-04-24T13:46:40;8.80;;;3.70;;
8889;SDS011;4481;43.406;24.454;2023-04-24T13:49:06;8.03;;;3.87;;
8889;SDS011;4481;43.406;24.454;2023-04-24T13:51:33;6.93;;;4.00;;
8889;SDS011;4481;43.406;24.454;2023-04-24T13:54:00;4.80;;;4.00;;
8889;SDS011;4481;43.406;24.454;2023-04-24T13:56:26;4.37;;;3.40;;
8889;SDS011;4481;43.406;24.454;2023-04-24T13:58:52;5.50;;;3.80;;
8889;SDS011;4481;43.406;24.454;2023-04-24T14:01:19;4.57;;;4.07;;
8889;SDS011;4481;43.406;24.454;2023-04-24T14:03:49;4.70;;;4.30;;
8889;SDS011;4481;43.406;24.454;2023-04-24T14:06:15;4.37;;;3.73;;
8889;SDS011;4481;43.406;24.454;2023-04-24T14:08:42;6.97;;;4.00;;
8889;SDS011;4481;43.406;24.454;2023-04-24T14:11:08;4.47;;;3.63;;
8889;SDS011;4481;43.406;24.454;2023-04-24T14:13:35;4.63;;;3.67;;
8889;SDS011;4481;43.406;24.454;2023-04-24T14:16:02;7.23;;;3.50;;
8889;SDS011;4481;43.406;24.454;2023-04-24T14:18:29;5.70;;;3.93;;
8889;SDS011;4481;43.406;24.454;2023-04-24T14:20:55;7.10;;;4.60;;
8889;SDS011;4481;43.406;24.454;2023-04-24T14:23:21;5.70;;;4.80;;
8889;SDS011;4481;43.406;24.454;2023-04-24T14:25:48;5.93;;;4.53;;
8889;SDS011;4481;43.406;24.454;2023-04-24T14:28:17;4.97;;;4.43;;
8889;SDS011;4481;43.406;24.454;2023-04-24T14:30:43;5.47;;;4.53;;
8889;SDS011;4481;43.406;24.454;2023-04-24T14:33:09;4.93;;;4.50;;
8889;SDS011;4481;43.406;24.454;2023-04-24T14:35:38;5.53;;;4.50;;
8889;SDS011;4481;43.406;24.454;2023-04-24T14:38:05;6.00;;;4.87;;
8889;SDS011;4481;43.406;24.454;2023-04-24T14:40:31;4.93;;;4.43;;
8889;SDS011;4481;43.406;24.454;2023-04-24T14:42:58;9.30;;;4.53;;
8889;SDS011;4481;43.406;24.454;2023-04-24T14:45:24;8.53;;;4.87;;
8889;SDS011;4481;43.406;24.454;2023-04-24T14:47:51;5.30;;;4.80;;
8889;SDS011;4481;43.406;24.454;2023-04-24T14:50:18;4.90;;;4.03;;
8889;SDS011;4481;43.406;24.454;2023-04-24T14:52:44;8.80;;;4.47;;
8889;SDS011;4481;43.406;24.454;2023-04-24T14:55:10;5.33;;;4.83;;
8889;SDS011;4481;43.406;24.454;2023-04-24T14:57:36;4.57;;;4.10;;
8889;SDS011;4481;43.406;24.454;2023-04-24T15:00:03;4.83;;;4.43;;
8889;SDS011;4481;43.406;24.454;2023-04-24T15:02:32;7.73;;;4.43;;
8889;SDS011;4481;43.406;24.454;2023-04-24T15:04:58;7.17;;;4.90;;
8889;SDS011;4481;43.406;24.454;2023-04-24T15:07:24;7.07;;;4.87;;
8889;SDS011;4481;43.406;24.454;2023-04-24T15:09:50;6.40;;;4.80;;